sensor_id;sensor_type;location;lat;lon;timestamp;pressure;altitude;pressure_sealevel;temperature;humidity
73624;BME280;61921;53.226;-1.296;2023-04-28T00:00:00;99759.95;;;8.23;100.00
73624;BME280;61921;53.226;-1.296;2023-04-28T00:02:25;99753.31;;;8.11;100.00
73624;BME280;61921;53.226;-1.296;2023-04-28T00:04:50;99747.93;;;8.24;100.00
73624;BME280;61921;53.226;-1.296;2023-04-28T00:07:15;99747.73;;;8.18;100.00
73624;BME280;61921;53.226;-1.296;2023-04-28T00:09:41;99742.66;;;8.25;100.00
73624;BME280;61921;53.226;-1.296;2023-04-28T00:12:06;99734.31;;;8.43;100.00
73624;BME280;61921;53.226;-1.296;2023-04-28T00:14:31;99731.63;;;8.26;100.00
73624;BME280;61921;53.226;-1.296;2023-04-28T00:16:57;99727.32;;;8.26;100.00
73624;BME280;61921;53.226;-1.296;2023-04-28T00:19:22;99721.79;;;8.35;100.00
73624;BME280;61921;53.226;-1.296;2023-04-28T00:21:47;99722.57;;;8.20;100.00
73624;BME280;61921;53.226;-1.296;2023-04-28T00:24:13;99719.72;;;8.29;100.00
73624;BME280;61921;53.226;-1.296;2023-04-28T00:26:38;99719.27;;;8.30;100.00
73624;BME280;61921;53.226;-1.296;2023-04-28T00:29:04;99713.52;;;8.40;100.00
73624;BME280;61921;53.226;-1.296;2023-04-28T00:31:29;99709.92;;;8.33;100.00
73624;BME280;61921;53.226;-1.296;2023-04-28T00:33:54;99703.81;;;8.48;100.00
73624;BME280;61921;53.226;-1.296;2023-04-28T00:36:20;99704.76;;;8.45;100.00
73624;BME280;61921;53.226;-1.296;2023-04-28T00:38:45;99696.40;;;8.53;100.00
73624;BME280;61921;53.226;-1.296;2023-04-28T00:41:12;99697.41;;;8.49;100.00
73624;BME280;61921;53.226;-1.296;2023-04-28T00:43:45;99697.78;;;8.41;100.00
73624;BME280;61921;53.226;-1.296;2023-04-28T00:46:02;99696.35;;;8.50;100.00
73624;BME280;61921;53.226;-1.296;2023-04-28T00:48:27;99697.25;;;8.57;100.00
73624;BME280;61921;53.226;-1.296;2023-04-28T00:50:54;99696.22;;;8.60;100.00
73624;BME280;61921;53.226;-1.296;2023-04-28T00:53:19;99691.95;;;8.69;100.00
73624;BME280;61921;53.226;-1.296;2023-04-28T00:55:44;99693.51;;;8.77;100.00
73624;BME280;61921;53.226;-1.296;2023-04-28T00:58:10;99691.61;;;8.71;100.00
73624;BME280;61921;53.226;-1.296;2023-04-28T01:00:36;99690.29;;;8.63;100.00
73624;BME280;61921;53.226;-1.296;2023-04-28T01:03:01;99688.27;;;8.53;100.00
73624;BME280;61921;53.226;-1.296;2023-04-28T01:05:28;99688.36;;;8.60;100.00
73624;BME280;61921;53.226;-1.296;2023-04-28T01:07:52;99681.68;;;8.65;100.00
73624;BME280;61921;53.226;-1.296;2023-04-28T01:10:18;99681.77;;;8.54;100.00
73624;BME280;61921;53.226;-1.296;2023-04-28T01:12:43;99680.67;;;8.59;100.00
73624;BME280;61921;53.226;-1.296;2023-04-28T01:15:14;99675.43;;;8.61;100.00
73624;BME280;61921;53.226;-1.296;2023-04-28T01:17:33;99675.80;;;8.61;100.00
73624;BME280;61921;53.226;-1.296;2023-04-28T01:19:59;99671.28;;;8.73;100.00
73624;BME280;61921;53.226;-1.296;2023-04-28T01:22:25;99673.36;;;8.65;100.00
73624;BME280;61921;53.226;-1.296;2023-04-28T01:24:49;99674.52;;;8.74;100.00
73624;BME280;61921;53.226;-1.296;2023-04-28T01:27:15;99675.15;;;8.83;100.00
73624;BME280;61921;53.226;-1.296;2023-04-28T01:29:41;99676.29;;;8.77;100.00
73624;BME280;61921;53.226;-1.296;2023-04-28T01:32:05;99671.45;;;8.76;100.00
73624;BME280;61921;53.226;-1.296;2023-04-28T01:34:30;99669.80;;;8.67;100.00
73624;BME280;61921;53.226;-1.296;2023-04-28T01:36:55;99670.52;;;8.81;100.00
73624;BME280;61921;53.226;-1.296;2023-04-28T01:39:21;99670.65;;;8.80;100.00
73624;BME280;61921;53.226;-1.296;2023-04-28T01:41:47;99666.20;;;8.87;100.00
73624;BME280;61921;53.226;-1.296;2023-04-28T01:44:12;99664.58;;;8.88;100.00
73624;BME280;61921;53.226;-1.296;2023-04-28T01:46:37;99666.71;;;8.85;100.00
73624;BME280;61921;53.226;-1.296;2023-04-28T01:49:03;99660.74;;;8.90;100.00
73624;BME280;61921;53.226;-1.296;2023-04-28T01:51:28;99655.85;;;8.78;100.00
73624;BME280;61921;53.226;-1.296;2023-04-28T01:53:54;99653.70;;;8.83;100.00
73624;BME280;61921;53.226;-1.296;2023-04-28T01:56:20;99648.88;;;8.64;100.00
73624;BME280;61921;53.226;-1.296;2023-04-28T01:58:44;99644.63;;;8.71;100.00
73624;BME280;61921;53.226;-1.296;2023-04-28T02:01:10;99645.24;;;8.68;100.00
73624;BME280;61921;53.226;-1.296;2023-04-28T02:03:36;99643.25;;;8.67;100.00
73624;BME280;61921;53.226;-1.296;2023-04-28T02:06:01;99640.24;;;8.48;100.00
73624;BME280;61921;53.226;-1.296;2023-04-28T02:08:26;99635.60;;;8.65;100.00
73624;BME280;61921;53.226;-1.296;2023-04-28T02:10:52;99632.06;;;8.58;100.00
73624;BME280;61921;53.226;-1.296;2023-04-28T02:13:18;99629.92;;;8.68;100.00
73624;BME280;61921;53.226;-1.296;2023-04-28T02:15:43;99627.88;;;8.73;100.00
73624;BME280;61921;53.226;-1.296;2023-04-28T02:18:09;99628.85;;;8.64;100.00
73624;BME280;61921;53.226;-1.296;2023-04-28T02:20:34;99627.00;;;8.62;100.00
73624;BME280;61921;53.226;-1.296;2023-04-28T02:22:59;99630.95;;;8.59;100.00
73624;BME280;61921;53.226;-1.296;2023-04-28T02:25:24;99637.64;;;8.76;100.00
73624;BME280;61921;53.226;-1.296;2023-04-28T02:27:49;99640.97;;;8.82;100.00
73624;BME280;61921;53.226;-1.296;2023-04-28T02:30:15;99641.15;;;8.88;100.00
73624;BME280;61921;53.226;-1.296;2023-04-28T02:32:40;99641.93;;;8.92;100.00
73624;BME280;61921;53.226;-1.296;2023-04-28T02:35:07;99642.50;;;8.88;100.00
73624;BME280;61921;53.226;-1.296;2023-04-28T02:37:32;99642.78;;;8.91;100.00
73624;BME280;61921;53.226;-1.296;2023-04-28T02:39:57;99634.59;;;9.03;100.00
73624;BME280;61921;53.226;-1.296;2023-04-28T02:42:23;99634.16;;;9.15;100.00
73624;BME280;61921;53.226;-1.296;2023-04-28T02:44:48;99626.66;;;9.23;100.00
73624;BME280;61921;53.226;-1.296;2023-04-28T02:47:13;99626.95;;;9.14;100.00
73624;BME280;61921;53.226;-1.296;2023-04-28T02:49:39;99627.22;;;9.20;100.00
73624;BME280;61921;53.226;-1.296;2023-04-28T02:52:04;99624.95;;;9.30;100.00
73624;BME280;61921;53.226;-1.296;2023-04-28T02:54:30;99621.47;;;9.26;100.00
73624;BME280;61921;53.226;-1.296;2023-04-28T02:56:56;99617.78;;;9.22;100.00
73624;BME280;61921;53.226;-1.296;2023-04-28T02:59:22;99617.93;;;9.31;100.00
73624;BME280;61921;53.226;-1.296;2023-04-28T03:01:47;99619.67;;;9.18;100.00
73624;BME280;61921;53.226;-1.296;2023-04-28T03:04:13;99624.48;;;9.13;100.00
73624;BME280;61921;53.226;-1.296;2023-04-28T03:06:38;99623.47;;;9.20;100.00
73624;BME280;61921;53.226;-1.296;2023-04-28T03:09:04;99624.14;;;9.13;100.00
73624;BME280;61921;53.226;-1.296;2023-04-28T03:11:29;99623.31;;;9.15;100.00
73624;BME280;61921;53.226;-1.296;2023-04-28T03:13:54;99617.23;;;9.27;100.00
73624;BME280;61921;53.226;-1.296;2023-04-28T03:16:20;99615.49;;;9.31;100.00
73624;BME280;61921;53.226;-1.296;2023-04-28T03:18:44;99617.75;;;9.27;100.00
73624;BME280;61921;53.226;-1.296;2023-04-28T03:21:10;99617.32;;;9.24;100.00
73624;BME280;61921;53.226;-1.296;2023-04-28T03:23:35;99613.49;;;9.39;100.00
73624;BME280;61921;53.226;-1.296;2023-04-28T03:26:01;99617.09;;;9.40;100.00
73624;BME280;61921;53.226;-1.296;2023-04-28T03:28:27;99621.18;;;9.54;100.00
73624;BME280;61921;53.226;-1.296;2023-04-28T03:30:53;99615.80;;;9.61;100.00
73624;BME280;61921;53.226;-1.296;2023-04-28T03:33:18;99614.41;;;9.70;100.00
73624;BME280;61921;53.226;-1.296;2023-04-28T03:35:43;99615.57;;;9.56;100.00
73624;BME280;61921;53.226;-1.296;2023-04-28T03:38:09;99614.87;;;9.72;100.00
73624;BME280;61921;53.226;-1.296;2023-04-28T03:40:35;99611.69;;;9.85;100.00
73624;BME280;61921;53.226;-1.296;2023-04-28T03:43:00;99609.97;;;9.48;100.00
73624;BME280;61921;53.226;-1.296;2023-04-28T03:45:25;99606.15;;;9.47;100.00
73624;BME280;61921;53.226;-1.296;2023-04-28T03:47:50;99602.01;;;9.41;100.00
73624;BME280;61921;53.226;-1.296;2023-04-28T03:50:17;99598.59;;;9.04;100.00
73624;BME280;61921;53.226;-1.296;2023-04-28T03:52:41;99593.81;;;8.98;100.00
73624;BME280;61921;53.226;-1.296;2023-04-28T03:55:08;99592.62;;;8.84;100.00
73624;BME280;61921;53.226;-1.296;2023-04-28T03:57:32;99585.57;;;8.84;100.00
73624;BME280;61921;53.226;-1.296;2023-04-28T03:59:58;99588.22;;;9.07;100.00
73624;BME280;61921;53.226;-1.296;2023-04-28T04:02:23;99585.86;;;9.38;100.00
73624;BME280;61921;53.226;-1.296;2023-04-28T04:04:49;99587.55;;;9.56;100.00
73624;BME280;61921;53.226;-1.296;2023-04-28T04:07:14;99587.92;;;9.28;100.00
73624;BME280;61921;53.226;-1.296;2023-04-28T04:09:39;99586.99;;;9.33;100.00
73624;BME280;61921;53.226;-1.296;2023-04-28T04:12:06;99584.95;;;9.43;100.00
73624;BME280;61921;53.226;-1.296;2023-04-28T04:14:30;99581.20;;;9.51;100.00
73624;BME280;61921;53.226;-1.296;2023-04-28T04:16:55;99578.66;;;9.57;100.00
73624;BME280;61921;53.226;-1.296;2023-04-28T04:19:21;99587.81;;;9.51;100.00
73624;BME280;61921;53.226;-1.296;2023-04-28T04:21:46;99589.76;;;9.26;100.00
73624;BME280;61921;53.226;-1.296;2023-04-28T04:24:12;99588.88;;;9.48;100.00
73624;BME280;61921;53.226;-1.296;2023-04-28T04:26:37;99589.92;;;9.55;100.00
73624;BME280;61921;53.226;-1.296;2023-04-28T04:29:03;99589.54;;;9.60;100.00
73624;BME280;61921;53.226;-1.296;2023-04-28T04:31:28;99593.39;;;9.61;100.00
73624;BME280;61921;53.226;-1.296;2023-04-28T04:33:54;99600.37;;;9.73;100.00
73624;BME280;61921;53.226;-1.296;2023-04-28T04:36:20;99599.59;;;9.30;100.00
73624;BME280;61921;53.226;-1.296;2023-04-28T04:38:45;99598.98;;;9.34;100.00
73624;BME280;61921;53.226;-1.296;2023-04-28T04:41:10;99600.70;;;9.31;100.00
73624;BME280;61921;53.226;-1.296;2023-04-28T04:43:36;99603.16;;;9.65;100.00
73624;BME280;61921;53.226;-1.296;2023-04-28T04:46:02;99605.85;;;8.97;100.00
73624;BME280;61921;53.226;-1.296;2023-04-28T04:48:27;99609.81;;;8.75;100.00
73624;BME280;61921;53.226;-1.296;2023-04-28T04:50:52;99612.65;;;8.60;100.00
73624;BME280;61921;53.226;-1.296;2023-04-28T04:53:18;99616.25;;;8.66;100.00
73624;BME280;61921;53.226;-1.296;2023-04-28T04:55:43;99614.20;;;8.92;100.00
73624;BME280;61921;53.226;-1.296;2023-04-28T04:58:08;99609.82;;;8.88;100.00
73624;BME280;61921;53.226;-1.296;2023-04-28T05:00:34;99613.99;;;8.87;100.00
73624;BME280;61921;53.226;-1.296;2023-04-28T05:02:59;99616.39;;;8.84;100.00
73624;BME280;61921;53.226;-1.296;2023-04-28T05:05:25;99615.21;;;8.98;100.00
73624;BME280;61921;53.226;-1.296;2023-04-28T05:07:50;99617.47;;;9.19;100.00
73624;BME280;61921;53.226;-1.296;2023-04-28T05:10:16;99618.69;;;9.24;100.00
73624;BME280;61921;53.226;-1.296;2023-04-28T05:12:41;99618.07;;;8.97;100.00
73624;BME280;61921;53.226;-1.296;2023-04-28T05:15:07;99618.91;;;9.02;100.00
73624;BME280;61921;53.226;-1.296;2023-04-28T05:17:33;99621.26;;;8.88;100.00
73624;BME280;61921;53.226;-1.296;2023-04-28T05:19:58;99624.43;;;8.87;100.00
73624;BME280;61921;53.226;-1.296;2023-04-28T05:22:23;99627.19;;;8.83;100.00
73624;BME280;61921;53.226;-1.296;2023-04-28T05:24:48;99629.79;;;8.89;100.00
73624;BME280;61921;53.226;-1.296;2023-04-28T05:27:14;99633.05;;;8.89;100.00
73624;BME280;61921;53.226;-1.296;2023-04-28T05:29:39;99637.56;;;8.90;100.00
73624;BME280;61921;53.226;-1.296;2023-04-28T05:32:05;99642.42;;;8.81;100.00
73624;BME280;61921;53.226;-1.296;2023-04-28T05:34:30;99645.15;;;8.80;100.00
73624;BME280;61921;53.226;-1.296;2023-04-28T05:36:55;99646.23;;;8.76;100.00
73624;BME280;61921;53.226;-1.296;2023-04-28T05:39:21;99646.77;;;8.70;100.00
73624;BME280;61921;53.226;-1.296;2023-04-28T05:41:46;99647.99;;;8.80;100.00
73624;BME280;61921;53.226;-1.296;2023-04-28T05:44:12;99645.22;;;8.72;100.00
73624;BME280;61921;53.226;-1.296;2023-04-28T05:46:37;99645.39;;;8.64;100.00
73624;BME280;61921;53.226;-1.296;2023-04-28T05:49:03;99640.88;;;8.61;100.00
73624;BME280;61921;53.226;-1.296;2023-04-28T05:51:28;99639.07;;;8.68;100.00
73624;BME280;61921;53.226;-1.296;2023-04-28T05:53:54;99637.96;;;8.59;100.00
73624;BME280;61921;53.226;-1.296;2023-04-28T05:56:20;99641.40;;;8.51;100.00
73624;BME280;61921;53.226;-1.296;2023-04-28T05:58:46;99647.66;;;8.64;100.00
73624;BME280;61921;53.226;-1.296;2023-04-28T06:01:11;99652.04;;;8.47;100.00
73624;BME280;61921;53.226;-1.296;2023-04-28T06:03:37;99658.79;;;8.51;100.00
73624;BME280;61921;53.226;-1.296;2023-04-28T06:06:02;99658.64;;;8.60;100.00
73624;BME280;61921;53.226;-1.296;2023-04-28T06:08:27;99655.58;;;8.59;100.00
73624;BME280;61921;53.226;-1.296;2023-04-28T06:10:53;99652.44;;;8.75;100.00
73624;BME280;61921;53.226;-1.296;2023-04-28T06:13:20;99659.45;;;8.60;100.00
73624;BME280;61921;53.226;-1.296;2023-04-28T06:15:44;99659.50;;;8.70;100.00
73624;BME280;61921;53.226;-1.296;2023-04-28T06:18:10;99658.73;;;8.83;100.00
73624;BME280;61921;53.226;-1.296;2023-04-28T06:20:35;99660.65;;;8.83;100.00
73624;BME280;61921;53.226;-1.296;2023-04-28T06:23:01;99665.41;;;8.77;100.00
73624;BME280;61921;53.226;-1.296;2023-04-28T06:25:26;99663.72;;;8.83;100.00
73624;BME280;61921;53.226;-1.296;2023-04-28T06:27:52;99658.46;;;8.83;100.00
73624;BME280;61921;53.226;-1.296;2023-04-28T06:30:18;99657.83;;;8.74;100.00
73624;BME280;61921;53.226;-1.296;2023-04-28T06:32:42;99653.33;;;9.08;100.00
73624;BME280;61921;53.226;-1.296;2023-04-28T06:35:08;99655.69;;;9.05;100.00
73624;BME280;61921;53.226;-1.296;2023-04-28T06:37:33;99659.11;;;8.91;100.00
73624;BME280;61921;53.226;-1.296;2023-04-28T06:39:58;99665.05;;;8.85;100.00
73624;BME280;61921;53.226;-1.296;2023-04-28T06:42:23;99666.25;;;8.81;100.00
73624;BME280;61921;53.226;-1.296;2023-04-28T06:44:49;99670.07;;;8.81;100.00
73624;BME280;61921;53.226;-1.296;2023-04-28T06:47:15;99674.02;;;8.76;100.00
73624;BME280;61921;53.226;-1.296;2023-04-28T06:49:41;99677.69;;;8.85;100.00
73624;BME280;61921;53.226;-1.296;2023-04-28T06:52:06;99676.97;;;9.18;100.00
73624;BME280;61921;53.226;-1.296;2023-04-28T06:54:32;99679.44;;;9.06;100.00
73624;BME280;61921;53.226;-1.296;2023-04-28T06:56:57;99687.00;;;8.95;100.00
73624;BME280;61921;53.226;-1.296;2023-04-28T06:59:22;99693.57;;;8.71;100.00
73624;BME280;61921;53.226;-1.296;2023-04-28T07:01:48;99691.12;;;8.83;100.00
73624;BME280;61921;53.226;-1.296;2023-04-28T07:04:13;99687.99;;;8.87;100.00
73624;BME280;61921;53.226;-1.296;2023-04-28T07:06:38;99691.50;;;9.02;100.00
73624;BME280;61921;53.226;-1.296;2023-04-28T07:09:04;99694.85;;;9.20;100.00
73624;BME280;61921;53.226;-1.296;2023-04-28T07:11:31;99696.37;;;9.13;100.00
73624;BME280;61921;53.226;-1.296;2023-04-28T07:13:55;99695.01;;;9.31;100.00
73624;BME280;61921;53.226;-1.296;2023-04-28T07:16:21;99703.45;;;9.19;100.00
73624;BME280;61921;53.226;-1.296;2023-04-28T07:18:46;99704.41;;;9.29;100.00
73624;BME280;61921;53.226;-1.296;2023-04-28T07:21:11;99702.23;;;9.27;100.00
73624;BME280;61921;53.226;-1.296;2023-04-28T07:23:37;99702.00;;;9.30;100.00
73624;BME280;61921;53.226;-1.296;2023-04-28T07:26:02;99707.43;;;9.21;100.00
73624;BME280;61921;53.226;-1.296;2023-04-28T07:28:29;99705.88;;;9.18;100.00
73624;BME280;61921;53.226;-1.296;2023-04-28T07:30:54;99705.67;;;9.45;100.00
73624;BME280;61921;53.226;-1.296;2023-04-28T07:33:20;99708.13;;;9.32;100.00
73624;BME280;61921;53.226;-1.296;2023-04-28T07:35:45;99715.78;;;9.38;100.00
73624;BME280;61921;53.226;-1.296;2023-04-28T07:38:10;99716.84;;;9.42;100.00
73624;BME280;61921;53.226;-1.296;2023-04-28T07:40:35;99725.70;;;9.23;100.00
73624;BME280;61921;53.226;-1.296;2023-04-28T07:43:01;99732.67;;;9.32;100.00
73624;BME280;61921;53.226;-1.296;2023-04-28T07:45:26;99737.82;;;9.33;100.00
73624;BME280;61921;53.226;-1.296;2023-04-28T07:47:51;99742.69;;;9.21;100.00
73624;BME280;61921;53.226;-1.296;2023-04-28T07:50:17;99749.91;;;9.38;100.00
73624;BME280;61921;53.226;-1.296;2023-04-28T07:52:42;99752.44;;;9.33;100.00
73624;BME280;61921;53.226;-1.296;2023-04-28T07:55:08;99752.27;;;9.05;100.00
73624;BME280;61921;53.226;-1.296;2023-04-28T07:57:34;99755.40;;;9.05;100.00
73624;BME280;61921;53.226;-1.296;2023-04-28T07:59:58;99759.35;;;9.13;100.00
73624;BME280;61921;53.226;-1.296;2023-04-28T08:02:24;99761.60;;;9.14;100.00
73624;BME280;61921;53.226;-1.296;2023-04-28T08:04:50;99767.34;;;9.24;100.00
73624;BME280;61921;53.226;-1.296;2023-04-28T08:07:16;99771.77;;;9.24;100.00
73624;BME280;61921;53.226;-1.296;2023-04-28T08:09:41;99772.13;;;9.42;100.00
73624;BME280;61921;53.226;-1.296;2023-04-28T08:12:07;99778.14;;;9.38;100.00
73624;BME280;61921;53.226;-1.296;2023-04-28T08:14:32;99779.80;;;9.29;100.00
73624;BME280;61921;53.226;-1.296;2023-04-28T08:16:58;99783.22;;;9.44;100.00
73624;BME280;61921;53.226;-1.296;2023-04-28T08:19:24;99785.00;;;9.45;100.00
73624;BME280;61921;53.226;-1.296;2023-04-28T08:21:49;99786.21;;;9.41;100.00
73624;BME280;61921;53.226;-1.296;2023-04-28T08:24:14;99785.88;;;9.57;100.00
73624;BME280;61921;53.226;-1.296;2023-04-28T08:26:40;99788.78;;;9.58;100.00
73624;BME280;61921;53.226;-1.296;2023-04-28T08:29:05;99791.77;;;9.60;100.00
73624;BME280;61921;53.226;-1.296;2023-04-28T08:31:31;99796.11;;;9.63;100.00
73624;BME280;61921;53.226;-1.296;2023-04-28T08:33:56;99800.96;;;9.84;100.00
73624;BME280;61921;53.226;-1.296;2023-04-28T08:36:22;99803.68;;;9.76;100.00
73624;BME280;61921;53.226;-1.296;2023-04-28T08:38:47;99802.39;;;9.86;100.00
73624;BME280;61921;53.226;-1.296;2023-04-28T08:41:14;99803.31;;;9.98;100.00
73624;BME280;61921;53.226;-1.296;2023-04-28T08:43:38;99807.83;;;10.00;100.00
73624;BME280;61921;53.226;-1.296;2023-04-28T08:46:05;99815.65;;;9.87;100.00
73624;BME280;61921;53.226;-1.296;2023-04-28T08:48:32;99822.13;;;9.72;100.00
73624;BME280;61921;53.226;-1.296;2023-04-28T08:50:55;99824.26;;;9.78;100.00
73624;BME280;61921;53.226;-1.296;2023-04-28T08:53:23;99824.03;;;9.80;100.00
73624;BME280;61921;53.226;-1.296;2023-04-28T08:55:45;99828.07;;;9.80;100.00
73624;BME280;61921;53.226;-1.296;2023-04-28T08:58:11;99830.08;;;9.83;100.00
73624;BME280;61921;53.226;-1.296;2023-04-28T09:00:36;99831.79;;;9.88;100.00
73624;BME280;61921;53.226;-1.296;2023-04-28T09:03:02;99831.17;;;9.89;100.00
73624;BME280;61921;53.226;-1.296;2023-04-28T09:05:27;99833.96;;;9.89;100.00
73624;BME280;61921;53.226;-1.296;2023-04-28T09:07:53;99839.34;;;9.83;100.00
73624;BME280;61921;53.226;-1.296;2023-04-28T09:10:21;99841.20;;;9.78;100.00
73624;BME280;61921;53.226;-1.296;2023-04-28T09:12:43;99845.79;;;9.88;100.00
73624;BME280;61921;53.226;-1.296;2023-04-28T09:15:09;99849.88;;;10.02;100.00
73624;BME280;61921;53.226;-1.296;2023-04-28T09:17:46;99853.30;;;9.83;100.00
73624;BME280;61921;53.226;-1.296;2023-04-28T09:20:00;99855.11;;;9.88;100.00
73624;BME280;61921;53.226;-1.296;2023-04-28T09:22:27;99859.22;;;9.77;100.00
73624;BME280;61921;53.226;-1.296;2023-04-28T09:24:52;99862.20;;;9.98;100.00
73624;BME280;61921;53.226;-1.296;2023-04-28T09:27:25;99866.76;;;10.23;100.00
73624;BME280;61921;53.226;-1.296;2023-04-28T09:29:51;99866.40;;;10.28;100.00
73624;BME280;61921;53.226;-1.296;2023-04-28T09:32:14;99871.19;;;10.25;100.00
73624;BME280;61921;53.226;-1.296;2023-04-28T09:34:41;99873.26;;;10.27;100.00
73624;BME280;61921;53.226;-1.296;2023-04-28T09:36:58;99875.68;;;10.40;100.00
73624;BME280;61921;53.226;-1.296;2023-04-28T09:39:29;99879.21;;;10.45;100.00
73624;BME280;61921;53.226;-1.296;2023-04-28T09:41:49;99880.26;;;10.27;100.00
73624;BME280;61921;53.226;-1.296;2023-04-28T09:44:15;99881.48;;;10.44;100.00
73624;BME280;61921;53.226;-1.296;2023-04-28T09:46:40;99885.58;;;10.52;100.00
73624;BME280;61921;53.226;-1.296;2023-04-28T09:49:05;99887.29;;;10.55;100.00
73624;BME280;61921;53.226;-1.296;2023-04-28T09:51:31;99888.04;;;10.61;100.00
73624;BME280;61921;53.226;-1.296;2023-04-28T09:53:59;99892.53;;;10.72;100.00
73624;BME280;61921;53.226;-1.296;2023-04-28T09:56:23;99894.13;;;10.65;100.00
73624;BME280;61921;53.226;-1.296;2023-04-28T09:58:49;99897.76;;;10.72;100.00
73624;BME280;61921;53.226;-1.296;2023-04-28T10:01:13;99901.54;;;10.91;100.00
73624;BME280;61921;53.226;-1.296;2023-04-28T10:03:38;99903.45;;;10.75;100.00
73624;BME280;61921;53.226;-1.296;2023-04-28T10:06:04;99904.23;;;10.72;100.00
73624;BME280;61921;53.226;-1.296;2023-04-28T10:08:30;99908.70;;;10.59;100.00
73624;BME280;61921;53.226;-1.296;2023-04-28T10:10:55;99911.28;;;10.86;100.00
73624;BME280;61921;53.226;-1.296;2023-04-28T10:13:21;99915.95;;;10.83;100.00
73624;BME280;61921;53.226;-1.296;2023-04-28T10:15:46;99916.68;;;10.81;100.00
73624;BME280;61921;53.226;-1.296;2023-04-28T10:18:12;99920.67;;;10.96;100.00
73624;BME280;61921;53.226;-1.296;2023-04-28T10:20:37;99920.39;;;11.07;100.00
73624;BME280;61921;53.226;-1.296;2023-04-28T10:25:30;99922.49;;;11.66;100.00
73624;BME280;61921;53.226;-1.296;2023-04-28T10:27:54;99920.73;;;12.17;100.00
73624;BME280;61921;53.226;-1.296;2023-04-28T10:30:20;99927.26;;;12.20;100.00
73624;BME280;61921;53.226;-1.296;2023-04-28T10:32:45;99928.72;;;12.22;100.00
73624;BME280;61921;53.226;-1.296;2023-04-28T10:44:52;99946.29;;;11.88;99.59
73624;BME280;61921;53.226;-1.296;2023-04-28T10:47:17;99946.95;;;11.63;100.00
73624;BME280;61921;53.226;-1.296;2023-04-28T10:54:33;99958.67;;;11.60;98.83
73624;BME280;61921;53.226;-1.296;2023-04-28T10:59:25;99967.04;;;11.85;96.42
73624;BME280;61921;53.226;-1.296;2023-04-28T11:01:49;99968.49;;;11.97;97.68
73624;BME280;61921;53.226;-1.296;2023-04-28T11:04:14;99967.22;;;12.10;94.92
73624;BME280;61921;53.226;-1.296;2023-04-28T11:06:46;99969.79;;;12.38;95.87
73624;BME280;61921;53.226;-1.296;2023-04-28T11:11:31;99975.55;;;12.22;98.23
73624;BME280;61921;53.226;-1.296;2023-04-28T11:16:24;99982.76;;;11.94;97.30
73624;BME280;61921;53.226;-1.296;2023-04-28T11:18:51;99985.83;;;11.84;98.05
73624;BME280;61921;53.226;-1.296;2023-04-28T11:21:13;99983.35;;;11.57;98.87
73624;BME280;61921;53.226;-1.296;2023-04-28T11:23:39;99987.86;;;11.82;99.45
73624;BME280;61921;53.226;-1.296;2023-04-28T11:26:04;99992.78;;;11.77;98.41
73624;BME280;61921;53.226;-1.296;2023-04-28T11:28:34;99994.17;;;11.64;98.76
73624;BME280;61921;53.226;-1.296;2023-04-28T11:33:20;100006.48;;;11.43;99.22
73624;BME280;61921;53.226;-1.296;2023-04-28T11:35:46;100012.58;;;11.60;98.97
73624;BME280;61921;53.226;-1.296;2023-04-28T11:38:11;100018.13;;;11.50;97.65
73624;BME280;61921;53.226;-1.296;2023-04-28T11:40:37;100019.53;;;11.40;96.43
73624;BME280;61921;53.226;-1.296;2023-04-28T11:43:01;100018.62;;;11.45;97.41
73624;BME280;61921;53.226;-1.296;2023-04-28T11:45:27;100021.91;;;11.56;96.64
73624;BME280;61921;53.226;-1.296;2023-04-28T11:47:53;100023.70;;;11.39;95.88
73624;BME280;61921;53.226;-1.296;2023-04-28T11:52:48;100032.48;;;11.38;95.63
73624;BME280;61921;53.226;-1.296;2023-04-28T11:55:15;100036.98;;;11.46;95.50
73624;BME280;61921;53.226;-1.296;2023-04-28T11:57:34;100037.53;;;11.48;97.41
73624;BME280;61921;53.226;-1.296;2023-04-28T12:00:11;100038.92;;;11.51;96.38
73624;BME280;61921;53.226;-1.296;2023-04-28T12:02:26;100046.12;;;11.51;96.66
73624;BME280;61921;53.226;-1.296;2023-04-28T12:04:50;100054.61;;;11.66;96.01
73624;BME280;61921;53.226;-1.296;2023-04-28T12:07:17;100059.87;;;11.62;93.26
73624;BME280;61921;53.226;-1.296;2023-04-28T12:09:42;100068.18;;;11.80;95.28
73624;BME280;61921;53.226;-1.296;2023-04-28T12:12:08;100076.51;;;11.81;96.07
73624;BME280;61921;53.226;-1.296;2023-04-28T12:16:57;100086.84;;;11.48;96.55
73624;BME280;61921;53.226;-1.296;2023-04-28T12:19:22;100087.96;;;11.38;96.52
73624;BME280;61921;53.226;-1.296;2023-04-28T12:21:58;100087.54;;;11.47;96.65
73624;BME280;61921;53.226;-1.296;2023-04-28T12:24:17;100088.77;;;11.48;96.20
73624;BME280;61921;53.226;-1.296;2023-04-28T12:26:40;100090.51;;;11.51;94.25
73624;BME280;61921;53.226;-1.296;2023-04-28T12:29:05;100094.80;;;11.39;94.92
73624;BME280;61921;53.226;-1.296;2023-04-28T12:31:30;100093.88;;;11.47;95.12
73624;BME280;61921;53.226;-1.296;2023-04-28T12:33:56;100101.21;;;11.51;94.72
73624;BME280;61921;53.226;-1.296;2023-04-28T12:36:21;100105.94;;;11.65;95.12
73624;BME280;61921;53.226;-1.296;2023-04-28T12:38:47;100110.11;;;11.56;93.67
73624;BME280;61921;53.226;-1.296;2023-04-28T12:41:12;100113.43;;;11.40;94.60
73624;BME280;61921;53.226;-1.296;2023-04-28T12:43:37;100123.69;;;11.36;94.21
73624;BME280;61921;53.226;-1.296;2023-04-28T12:46:03;100126.48;;;11.34;94.56
73624;BME280;61921;53.226;-1.296;2023-04-28T12:48:28;100128.79;;;11.39;95.85
73624;BME280;61921;53.226;-1.296;2023-04-28T12:50:53;100128.49;;;11.50;95.44
73624;BME280;61921;53.226;-1.296;2023-04-28T12:53:18;100128.27;;;11.44;94.78
73624;BME280;61921;53.226;-1.296;2023-04-28T12:55:43;100129.56;;;11.37;95.09
73624;BME280;61921;53.226;-1.296;2023-04-28T12:58:09;100130.36;;;11.41;94.84
73624;BME280;61921;53.226;-1.296;2023-04-28T13:00:35;100136.74;;;11.42;95.19
73624;BME280;61921;53.226;-1.296;2023-04-28T13:03:00;100139.52;;;11.59;94.72
73624;BME280;61921;53.226;-1.296;2023-04-28T13:05:25;100145.92;;;11.68;94.73
73624;BME280;61921;53.226;-1.296;2023-04-28T13:07:52;100148.12;;;11.55;93.88